sensor_id;sensor_type;location;lat;lon;timestamp;pressure;altitude;pressure_sealevel;temperature;humidity
11077;BME280;5591;42.626;23.380;2023-11-19T00:01:33;94106.06;;;4.69;nan
11077;BME280;5591;42.626;23.380;2023-11-19T00:04:00;94119.19;;;4.67;nan
11077;BME280;5591;42.626;23.380;2023-11-19T00:06:28;94117.53;;;4.58;nan
11077;BME280;5591;42.626;23.380;2023-11-19T00:08:54;94114.97;;;4.33;nan
11077;BME280;5591;42.626;23.380;2023-11-19T00:11:21;94128.47;;;4.70;nan
11077;BME280;5591;42.626;23.380;2023-11-19T00:13:48;94111.09;;;4.70;nan
11077;BME280;5591;42.626;23.380;2023-11-19T00:16:16;94119.19;;;4.34;nan
11077;BME280;5591;42.626;23.380;2023-11-19T00:18:43;94118.03;;;4.62;nan
11077;BME280;5591;42.626;23.380;2023-11-19T00:21:10;94118.22;;;4.68;nan
11077;BME280;5591;42.626;23.380;2023-11-19T00:23:37;94163.53;;;4.66;nan
11077;BME280;5591;42.626;23.380;2023-11-19T00:26:04;94116.66;;;4.50;nan
11077;BME280;5591;42.626;23.380;2023-11-19T00:28:32;94125.63;;;4.55;nan
11077;BME280;5591;42.626;23.380;2023-11-19T00:30:59;94126.69;;;4.78;nan
11077;BME280;5591;42.626;23.380;2023-11-19T00:33:28;94133.66;;;4.70;nan
11077;BME280;5591;42.626;23.380;2023-11-19T00:35:54;94124.84;;;4.55;nan
11077;BME280;5591;42.626;23.380;2023-11-19T00:38:21;94131.16;;;4.85;nan
11077;BME280;5591;42.626;23.380;2023-11-19T00:40:48;94131.94;;;4.86;nan
11077;BME280;5591;42.626;23.380;2023-11-19T00:43:15;94134.06;;;4.90;nan
11077;BME280;5591;42.626;23.380;2023-11-19T00:45:42;94137.38;;;4.67;nan
11077;BME280;5591;42.626;23.380;2023-11-19T00:48:09;94134.56;;;4.53;nan
11077;BME280;5591;42.626;23.380;2023-11-19T00:50:37;94143.53;;;4.58;nan
11077;BME280;5591;42.626;23.380;2023-11-19T00:53:07;94144.97;;;4.53;nan
11077;BME280;5591;42.626;23.380;2023-11-19T00:55:34;94140.44;;;4.63;nan
11077;BME280;5591;42.626;23.380;2023-11-19T00:58:01;94141.81;;;4.75;nan
11077;BME280;5591;42.626;23.380;2023-11-19T01:00:28;94136.19;;;4.54;nan
11077;BME280;5591;42.626;23.380;2023-11-19T01:02:57;94140.56;;;4.53;nan
11077;BME280;5591;42.626;23.380;2023-11-19T01:05:25;94153.66;;;4.69;nan
11077;BME280;5591;42.626;23.380;2023-11-19T01:07:55;94145.88;;;4.77;nan
11077;BME280;5591;42.626;23.380;2023-11-19T01:10:22;94084.22;;;4.54;nan
11077;BME280;5591;42.626;23.380;2023-11-19T01:12:49;94149.63;;;4.82;nan
11077;BME280;5591;42.626;23.380;2023-11-19T01:15:17;94143.47;;;4.83;nan
11077;BME280;5591;42.626;23.380;2023-11-19T01:17:45;94156.88;;;4.38;nan
11077;BME280;5591;42.626;23.380;2023-11-19T01:20:12;94134.13;;;4.65;nan
11077;BME280;5591;42.626;23.380;2023-11-19T01:22:40;94131.06;;;4.70;nan
11077;BME280;5591;42.626;23.380;2023-11-19T01:25:09;94130.75;;;4.72;nan
11077;BME280;5591;42.626;23.380;2023-11-19T01:27:35;94148.75;;;4.41;nan
11077;BME280;5591;42.626;23.380;2023-11-19T01:30:03;94142.50;;;4.51;nan
11077;BME280;5591;42.626;23.380;2023-11-19T01:32:31;94151.59;;;4.55;nan
11077;BME280;5591;42.626;23.380;2023-11-19T01:34:58;94140.81;;;4.68;nan
11077;BME280;5591;42.626;23.380;2023-11-19T01:37:25;94154.13;;;4.72;nan
11077;BME280;5591;42.626;23.380;2023-11-19T01:39:51;94171.25;;;4.83;nan
11077;BME280;5591;42.626;23.380;2023-11-19T01:42:19;94161.28;;;4.20;nan
11077;BME280;5591;42.626;23.380;2023-11-19T01:44:56;94165.38;;;4.48;nan
11077;BME280;5591;42.626;23.380;2023-11-19T01:47:24;94150.03;;;4.37;nan
11077;BME280;5591;42.626;23.380;2023-11-19T01:49:52;94150.75;;;4.47;nan
11077;BME280;5591;42.626;23.380;2023-11-19T01:52:19;94165.97;;;4.67;nan
11077;BME280;5591;42.626;23.380;2023-11-19T01:54:47;94157.44;;;4.49;nan
11077;BME280;5591;42.626;23.380;2023-11-19T01:57:14;94155.09;;;4.38;nan
11077;BME280;5591;42.626;23.380;2023-11-19T01:59:43;94152.06;;;4.25;nan
11077;BME280;5591;42.626;23.380;2023-11-19T02:02:10;94155.59;;;4.16;nan
11077;BME280;5591;42.626;23.380;2023-11-19T02:04:38;94162.91;;;4.46;nan
11077;BME280;5591;42.626;23.380;2023-11-19T02:07:06;94171.84;;;4.18;nan
11077;BME280;5591;42.626;23.380;2023-11-19T02:09:34;94157.00;;;4.36;nan
11077;BME280;5591;42.626;23.380;2023-11-19T02:12:01;94137.56;;;4.40;nan
11077;BME280;5591;42.626;23.380;2023-11-19T02:14:28;94128.13;;;3.88;nan
11077;BME280;5591;42.626;23.380;2023-11-19T02:16:57;94121.94;;;4.32;nan
11077;BME280;5591;42.626;23.380;2023-11-19T02:19:23;94121.91;;;4.58;nan
11077;BME280;5591;42.626;23.380;2023-11-19T02:21:50;94135.84;;;4.23;nan
11077;BME280;5591;42.626;23.380;2023-11-19T02:24:22;94151.69;;;3.95;nan
11077;BME280;5591;42.626;23.380;2023-11-19T02:26:53;94124.59;;;4.40;nan
11077;BME280;5591;42.626;23.380;2023-11-19T02:29:25;94142.06;;;3.87;nan
11077;BME280;5591;42.626;23.380;2023-11-19T02:31:52;94174.75;;;4.15;nan
11077;BME280;5591;42.626;23.380;2023-11-19T02:34:20;94147.09;;;4.06;nan
11077;BME280;5591;42.626;23.380;2023-11-19T02:36:47;94142.25;;;4.11;nan
11077;BME280;5591;42.626;23.380;2023-11-19T02:39:15;94138.88;;;4.19;nan
11077;BME280;5591;42.626;23.380;2023-11-19T02:41:46;94136.19;;;4.03;nan
11077;BME280;5591;42.626;23.380;2023-11-19T02:44:16;94135.09;;;3.88;nan
11077;BME280;5591;42.626;23.380;2023-11-19T02:46:44;94147.78;;;3.91;nan
11077;BME280;5591;42.626;23.380;2023-11-19T02:49:13;94117.47;;;3.74;nan
11077;BME280;5591;42.626;23.380;2023-11-19T02:51:40;94142.03;;;4.05;nan
11077;BME280;5591;42.626;23.380;2023-11-19T02:54:07;94152.63;;;4.11;nan
11077;BME280;5591;42.626;23.380;2023-11-19T02:56:35;94168.09;;;3.95;nan
11077;BME280;5591;42.626;23.380;2023-11-19T02:59:04;94150.09;;;4.19;nan
11077;BME280;5591;42.626;23.380;2023-11-19T03:01:40;94146.88;;;4.00;nan
11077;BME280;5591;42.626;23.380;2023-11-19T03:04:10;94126.50;;;3.87;nan
11077;BME280;5591;42.626;23.380;2023-11-19T03:06:37;94150.03;;;4.11;nan
11077;BME280;5591;42.626;23.380;2023-11-19T03:09:04;94161.63;;;3.99;nan
11077;BME280;5591;42.626;23.380;2023-11-19T03:11:35;94153.50;;;4.20;nan
11077;BME280;5591;42.626;23.380;2023-11-19T03:14:02;94168.41;;;4.18;nan
11077;BME280;5591;42.626;23.380;2023-11-19T03:16:29;94181.56;;;4.16;nan
11077;BME280;5591;42.626;23.380;2023-11-19T03:18:56;94168.16;;;4.03;nan
11077;BME280;5591;42.626;23.380;2023-11-19T03:21:28;94174.34;;;4.28;nan
11077;BME280;5591;42.626;23.380;2023-11-19T03:23:56;94176.16;;;4.35;nan
11077;BME280;5591;42.626;23.380;2023-11-19T03:26:26;94181.66;;;4.32;nan
11077;BME280;5591;42.626;23.380;2023-11-19T03:28:52;94176.59;;;4.23;nan
11077;BME280;5591;42.626;23.380;2023-11-19T03:31:20;94109.16;;;4.13;nan
11077;BME280;5591;42.626;23.380;2023-11-19T03:33:46;94176.78;;;4.29;nan
11077;BME280;5591;42.626;23.380;2023-11-19T03:36:13;94173.63;;;4.69;nan
11077;BME280;5591;42.626;23.380;2023-11-19T03:38:41;94152.53;;;3.78;nan
11077;BME280;5591;42.626;23.380;2023-11-19T03:41:11;94184.16;;;3.99;nan
11077;BME280;5591;42.626;23.380;2023-11-19T03:43:38;94203.59;;;3.95;nan
11077;BME280;5591;42.626;23.380;2023-11-19T03:46:16;94187.50;;;3.91;nan
11077;BME280;5591;42.626;23.380;2023-11-19T03:48:42;94190.16;;;4.17;nan
11077;BME280;5591;42.626;23.380;2023-11-19T03:51:09;94202.34;;;3.81;nan
11077;BME280;5591;42.626;23.380;2023-11-19T03:53:37;94202.66;;;4.39;nan
11077;BME280;5591;42.626;23.380;2023-11-19T03:56:06;94206.13;;;4.22;nan
11077;BME280;5591;42.626;23.380;2023-11-19T03:58:34;94197.38;;;4.05;nan
11077;BME280;5591;42.626;23.380;2023-11-19T04:01:01;94193.81;;;4.49;nan
11077;BME280;5591;42.626;23.380;2023-11-19T04:03:28;94191.50;;;4.21;nan
11077;BME280;5591;42.626;23.380;2023-11-19T04:05:55;94205.16;;;4.48;nan
11077;BME280;5591;42.626;23.380;2023-11-19T04:08:22;94202.47;;;4.15;nan
11077;BME280;5591;42.626;23.380;2023-11-19T04:10:49;94209.09;;;4.52;nan
11077;BME280;5591;42.626;23.380;2023-11-19T04:13:17;94205.00;;;4.50;nan
11077;BME280;5591;42.626;23.380;2023-11-19T04:15:45;94172.25;;;3.71;nan
11077;BME280;5591;42.626;23.380;2023-11-19T04:18:12;94207.59;;;4.07;nan
11077;BME280;5591;42.626;23.380;2023-11-19T04:20:38;94227.38;;;4.25;nan
11077;BME280;5591;42.626;23.380;2023-11-19T04:23:07;94208.34;;;4.17;nan
11077;BME280;5591;42.626;23.380;2023-11-19T04:25:35;94205.75;;;4.42;nan
11077;BME280;5591;42.626;23.380;2023-11-19T04:28:02;94205.81;;;4.25;nan
11077;BME280;5591;42.626;23.380;2023-11-19T04:30:30;94199.28;;;4.03;nan
11077;BME280;5591;42.626;23.380;2023-11-19T04:32:58;94204.19;;;4.49;nan
11077;BME280;5591;42.626;23.380;2023-11-19T04:35:25;94214.94;;;4.54;nan
11077;BME280;5591;42.626;23.380;2023-11-19T04:37:52;94228.78;;;3.94;nan
11077;BME280;5591;42.626;23.380;2023-11-19T04:40:19;94234.69;;;3.87;nan
11077;BME280;5591;42.626;23.380;2023-11-19T04:42:48;94213.91;;;4.04;nan
11077;BME280;5591;42.626;23.380;2023-11-19T04:45:15;94198.88;;;4.33;nan
11077;BME280;5591;42.626;23.380;2023-11-19T04:47:43;94211.06;;;4.33;nan
11077;BME280;5591;42.626;23.380;2023-11-19T04:50:10;94224.75;;;4.17;nan
11077;BME280;5591;42.626;23.380;2023-11-19T04:52:37;94211.16;;;4.49;nan
11077;BME280;5591;42.626;23.380;2023-11-19T04:55:06;94122.06;;;3.80;nan
11077;BME280;5591;42.626;23.380;2023-11-19T04:57:33;94157.72;;;3.60;nan
11077;BME280;5591;42.626;23.380;2023-11-19T05:00:00;94221.69;;;4.22;nan
11077;BME280;5591;42.626;23.380;2023-11-19T05:02:29;94229.28;;;4.15;nan
11077;BME280;5591;42.626;23.380;2023-11-19T05:04:57;94218.81;;;4.07;nan
11077;BME280;5591;42.626;23.380;2023-11-19T05:07:24;94219.06;;;4.39;nan
11077;BME280;5591;42.626;23.380;2023-11-19T05:09:52;94231.53;;;4.36;nan
11077;BME280;5591;42.626;23.380;2023-11-19T05:12:18;94240.84;;;4.21;nan
11077;BME280;5591;42.626;23.380;2023-11-19T05:14:45;94255.00;;;3.91;nan
11077;BME280;5591;42.626;23.380;2023-11-19T05:17:15;94235.63;;;4.03;nan
11077;BME280;5591;42.626;23.380;2023-11-19T05:19:41;94233.25;;;4.27;nan
11077;BME280;5591;42.626;23.380;2023-11-19T05:22:09;94249.88;;;3.82;nan
11077;BME280;5591;42.626;23.380;2023-11-19T05:24:36;94253.44;;;3.98;nan
11077;BME280;5591;42.626;23.380;2023-11-19T05:27:03;94241.22;;;3.91;nan
11077;BME280;5591;42.626;23.380;2023-11-19T05:29:30;94249.34;;;4.13;nan
11077;BME280;5591;42.626;23.380;2023-11-19T05:31:57;94242.69;;;4.28;nan
11077;BME280;5591;42.626;23.380;2023-11-19T05:34:24;94257.22;;;4.21;nan
11077;BME280;5591;42.626;23.380;2023-11-19T05:36:51;94249.97;;;4.07;nan
11077;BME280;5591;42.626;23.380;2023-11-19T05:39:19;94254.94;;;4.18;nan
11077;BME280;5591;42.626;23.380;2023-11-19T05:41:47;94250.63;;;3.92;nan
11077;BME280;5591;42.626;23.380;2023-11-19T05:44:14;94251.38;;;4.02;nan
11077;BME280;5591;42.626;23.380;2023-11-19T05:46:40;94275.25;;;4.23;nan
11077;BME280;5591;42.626;23.380;2023-11-19T05:49:08;94257.47;;;3.93;nan
11077;BME280;5591;42.626;23.380;2023-11-19T05:51:36;94215.84;;;3.50;nan
11077;BME280;5591;42.626;23.380;2023-11-19T05:54:04;94257.97;;;3.79;nan
11077;BME280;5591;42.626;23.380;2023-11-19T05:56:33;94233.78;;;4.13;nan
11077;BME280;5591;42.626;23.380;2023-11-19T05:59:00;94247.00;;;3.85;nan
11077;BME280;5591;42.626;23.380;2023-11-19T06:01:29;94245.94;;;3.78;nan
11077;BME280;5591;42.626;23.380;2023-11-19T06:03:55;94243.50;;;4.11;nan
11077;BME280;5591;42.626;23.380;2023-11-19T06:06:22;94258.97;;;3.68;nan
11077;BME280;5591;42.626;23.380;2023-11-19T06:08:49;94265.31;;;3.83;nan
11077;BME280;5591;42.626;23.380;2023-11-19T06:11:16;94271.53;;;4.08;nan
11077;BME280;5591;42.626;23.380;2023-11-19T06:13:47;94275.75;;;3.74;nan
11077;BME280;5591;42.626;23.380;2023-11-19T06:16:15;94264.56;;;4.26;nan
11077;BME280;5591;42.626;23.380;2023-11-19T06:18:42;94259.22;;;4.27;nan
11077;BME280;5591;42.626;23.380;2023-11-19T06:21:10;94258.25;;;3.93;nan
11077;BME280;5591;42.626;23.380;2023-11-19T06:23:37;94264.84;;;3.88;nan
11077;BME280;5591;42.626;23.380;2023-11-19T06:26:04;94255.81;;;4.27;nan
11077;BME280;5591;42.626;23.380;2023-11-19T06:28:31;94254.03;;;4.70;nan
11077;BME280;5591;42.626;23.380;2023-11-19T06:30:59;94268.72;;;4.19;nan
11077;BME280;5591;42.626;23.380;2023-11-19T06:33:26;94292.00;;;3.93;nan
11077;BME280;5591;42.626;23.380;2023-11-19T06:35:53;94184.28;;;3.54;nan
11077;BME280;5591;42.626;23.380;2023-11-19T06:38:21;94275.88;;;3.72;nan
11077;BME280;5591;42.626;23.380;2023-11-19T06:40:47;94267.47;;;4.05;nan
11077;BME280;5591;42.626;23.380;2023-11-19T06:43:14;94273.38;;;3.98;nan
11077;BME280;5591;42.626;23.380;2023-11-19T06:45:41;94270.41;;;4.28;nan
11077;BME280;5591;42.626;23.380;2023-11-19T06:48:09;94262.06;;;4.16;nan
11077;BME280;5591;42.626;23.380;2023-11-19T06:50:36;94285.69;;;3.96;nan
11077;BME280;5591;42.626;23.380;2023-11-19T06:53:03;94277.78;;;3.97;nan
11077;BME280;5591;42.626;23.380;2023-11-19T06:55:32;94296.38;;;3.93;nan
11077;BME280;5591;42.626;23.380;2023-11-19T06:57:59;94284.03;;;4.22;nan
11077;BME280;5591;42.626;23.380;2023-11-19T07:00:27;94281.13;;;3.90;nan
11077;BME280;5591;42.626;23.380;2023-11-19T07:02:54;94280.38;;;3.97;nan
11077;BME280;5591;42.626;23.380;2023-11-19T07:05:24;94291.28;;;4.01;nan
11077;BME280;5591;42.626;23.380;2023-11-19T07:07:51;94288.25;;;4.23;nan
11077;BME280;5591;42.626;23.380;2023-11-19T07:10:18;94281.25;;;4.23;nan
11077;BME280;5591;42.626;23.380;2023-11-19T07:12:44;94169.22;;;3.75;nan
11077;BME280;5591;42.626;23.380;2023-11-19T07:15:12;94293.88;;;4.36;nan
11077;BME280;5591;42.626;23.380;2023-11-19T07:17:40;94309.59;;;4.17;nan
11077;BME280;5591;42.626;23.380;2023-11-19T07:20:07;94327.84;;;3.90;nan
11077;BME280;5591;42.626;23.380;2023-11-19T07:22:36;94307.97;;;4.33;nan
11077;BME280;5591;42.626;23.380;2023-11-19T07:25:04;94317.78;;;4.39;nan
11077;BME280;5591;42.626;23.380;2023-11-19T07:27:31;94302.91;;;4.49;nan
11077;BME280;5591;42.626;23.380;2023-11-19T07:29:58;94309.53;;;4.44;nan
11077;BME280;5591;42.626;23.380;2023-11-19T07:32:24;94321.91;;;3.97;nan
11077;BME280;5591;42.626;23.380;2023-11-19T07:34:51;94323.31;;;3.92;nan
11077;BME280;5591;42.626;23.380;2023-11-19T07:37:18;94320.94;;;4.16;nan
11077;BME280;5591;42.626;23.380;2023-11-19T07:39:46;94353.53;;;4.28;nan
11077;BME280;5591;42.626;23.380;2023-11-19T07:42:13;94341.16;;;4.22;nan
11077;BME280;5591;42.626;23.380;2023-11-19T07:44:40;94357.34;;;3.89;nan
11077;BME280;5591;42.626;23.380;2023-11-19T07:47:06;94329.13;;;4.21;nan
11077;BME280;5591;42.626;23.380;2023-11-19T07:49:33;94329.25;;;4.54;nan
11077;BME280;5591;42.626;23.380;2023-11-19T07:52:00;94338.38;;;4.23;nan
11077;BME280;5591;42.626;23.380;2023-11-19T07:54:28;94335.63;;;4.07;nan
11077;BME280;5591;42.626;23.380;2023-11-19T07:56:56;94350.50;;;4.32;nan
11077;BME280;5591;42.626;23.380;2023-11-19T07:59:23;94338.41;;;3.79;nan
11077;BME280;5591;42.626;23.380;2023-11-19T08:01:50;94342.13;;;4.21;nan
11077;BME280;5591;42.626;23.380;2023-11-19T08:04:17;94375.13;;;4.28;nan
11077;BME280;5591;42.626;23.380;2023-11-19T08:06:43;94346.19;;;4.23;nan
11077;BME280;5591;42.626;23.380;2023-11-19T08:09:11;94308.84;;;4.24;nan
11077;BME280;5591;42.626;23.380;2023-11-19T08:11:39;94341.91;;;3.87;nan
11077;BME280;5591;42.626;23.380;2023-11-19T08:14:07;94330.75;;;4.39;nan
11077;BME280;5591;42.626;23.380;2023-11-19T08:16:35;94349.16;;;4.11;nan
11077;BME280;5591;42.626;23.380;2023-11-19T08:19:03;94350.50;;;3.88;nan
11077;BME280;5591;42.626;23.380;2023-11-19T08:21:29;94367.91;;;4.05;nan
11077;BME280;5591;42.626;23.380;2023-11-19T08:23:56;94359.31;;;4.22;nan
11077;BME280;5591;42.626;23.380;2023-11-19T08:26:23;94364.81;;;4.71;nan
11077;BME280;5591;42.626;23.380;2023-11-19T08:28:50;94353.59;;;4.71;nan
11077;BME280;5591;42.626;23.380;2023-11-19T08:31:18;94366.81;;;4.60;nan
11077;BME280;5591;42.626;23.380;2023-11-19T08:33:45;94379.28;;;4.21;nan
11077;BME280;5591;42.626;23.380;2023-11-19T08:36:15;94360.66;;;4.61;nan
11077;BME280;5591;42.626;23.380;2023-11-19T08:38:42;94366.00;;;4.59;nan
11077;BME280;5591;42.626;23.380;2023-11-19T08:41:09;94370.97;;;4.35;nan
11077;BME280;5591;42.626;23.380;2023-11-19T08:43:35;94362.44;;;4.60;nan
11077;BME280;5591;42.626;23.380;2023-11-19T08:46:03;94375.13;;;4.63;nan
11077;BME280;5591;42.626;23.380;2023-11-19T08:48:32;94379.56;;;4.71;nan
11077;BME280;5591;42.626;23.380;2023-11-19T08:50:58;94383.13;;;5.30;nan
11077;BME280;5591;42.626;23.380;2023-11-19T08:53:25;94352.72;;;5.56;nan
11077;BME280;5591;42.626;23.380;2023-11-19T08:55:52;94379.00;;;4.59;nan
11077;BME280;5591;42.626;23.380;2023-11-19T08:58:19;94374.06;;;4.73;nan
11077;BME280;5591;42.626;23.380;2023-11-19T09:00:45;94411.59;;;4.88;nan
11077;BME280;5591;42.626;23.380;2023-11-19T09:03:12;94367.44;;;4.54;nan
11077;BME280;5591;42.626;23.380;2023-11-19T09:05:41;94369.25;;;4.78;nan
11077;BME280;5591;42.626;23.380;2023-11-19T09:08:07;94343.81;;;4.65;nan
11077;BME280;5591;42.626;23.380;2023-11-19T09:10:34;94348.44;;;5.21;nan
11077;BME280;5591;42.626;23.380;2023-11-19T09:13:01;94281.91;;;5.11;nan
11077;BME280;5591;42.626;23.380;2023-11-19T09:15:29;94253.69;;;4.48;nan
11077;BME280;5591;42.626;23.380;2023-11-19T09:17:56;94338.31;;;5.77;nan
11077;BME280;5591;42.626;23.380;2023-11-19T09:20:22;94337.78;;;5.32;nan
11077;BME280;5591;42.626;23.380;2023-11-19T09:22:50;94333.81;;;5.20;nan
11077;BME280;5591;42.626;23.380;2023-11-19T09:25:17;94344.53;;;5.51;nan
11077;BME280;5591;42.626;23.380;2023-11-19T09:27:45;94347.25;;;6.08;nan
11077;BME280;5591;42.626;23.380;2023-11-19T09:30:12;94346.19;;;6.43;nan
11077;BME280;5591;42.626;23.380;2023-11-19T09:32:39;94345.75;;;5.98;nan
11077;BME280;5591;42.626;23.380;2023-11-19T09:35:06;94348.41;;;6.14;nan
11077;BME280;5591;42.626;23.380;2023-11-19T09:37:33;94328.00;;;6.01;nan
11077;BME280;5591;42.626;23.380;2023-11-19T09:40:01;94356.47;;;5.87;nan
11077;BME280;5591;42.626;23.380;2023-11-19T09:42:28;94307.53;;;5.65;nan
11077;BME280;5591;42.626;23.380;2023-11-19T09:44:59;94313.25;;;5.35;nan
11077;BME280;5591;42.626;23.380;2023-11-19T09:47:27;94310.66;;;5.35;nan
11077;BME280;5591;42.626;23.380;2023-11-19T09:49:55;94305.53;;;6.00;nan
11077;BME280;5591;42.626;23.380;2023-11-19T09:52:22;94287.88;;;6.44;nan
11077;BME280;5591;42.626;23.380;2023-11-19T09:54:50;94275.47;;;5.31;nan
11077;BME280;5591;42.626;23.380;2023-11-19T09:57:18;94244.81;;;4.76;nan
11077;BME280;5591;42.626;23.380;2023-11-19T09:59:46;94256.69;;;5.11;nan
11077;BME280;5591;42.626;23.380;2023-11-19T10:02:14;94259.44;;;5.02;nan
11077;BME280;5591;42.626;23.380;2023-11-19T10:04:42;94252.78;;;5.07;nan
11077;BME280;5591;42.626;23.380;2023-11-19T10:07:10;94250.91;;;4.92;nan
11077;BME280;5591;42.626;23.380;2023-11-19T10:09:37;94274.38;;;4.57;nan
11077;BME280;5591;42.626;23.380;2023-11-19T10:12:04;94274.69;;;4.54;nan
11077;BME280;5591;42.626;23.380;2023-11-19T10:14:33;94281.31;;;5.25;nan
11077;BME280;5591;42.626;23.380;2023-11-19T10:17:03;94255.03;;;5.36;nan
11077;BME280;5591;42.626;23.380;2023-11-19T10:19:31;94270.13;;;4.99;nan
11077;BME280;5591;42.626;23.380;2023-11-19T10:22:03;94267.81;;;5.63;nan
11077;BME280;5591;42.626;23.380;2023-11-19T10:24:34;94281.97;;;5.60;nan
11077;BME280;5591;42.626;23.380;2023-11-19T10:27:01;94269.34;;;5.40;nan
11077;BME280;5591;42.626;23.380;2023-11-19T10:29:29;94278.91;;;5.31;nan
11077;BME280;5591;42.626;23.380;2023-11-19T10:31:58;94274.44;;;5.49;nan
11077;BME280;5591;42.626;23.380;2023-11-19T10:34:42;94275.94;;;5.26;nan
11077;BME280;5591;42.626;23.380;2023-11-19T10:37:13;94257.66;;;5.85;nan
11077;BME280;5591;42.626;23.380;2023-11-19T10:39:54;94254.75;;;5.96;nan
11077;BME280;5591;42.626;23.380;2023-11-19T10:42:21;94261.41;;;5.91;nan
11077;BME280;5591;42.626;23.380;2023-11-19T10:44:48;94216.66;;;5.38;nan
11077;BME280;5591;42.626;23.380;2023-11-19T10:47:18;94282.44;;;5.64;nan
11077;BME280;5591;42.626;23.380;2023-11-19T10:49:46;94281.78;;;5.62;nan
11077;BME280;5591;42.626;23.380;2023-11-19T10:52:17;94274.78;;;5.88;nan
11077;BME280;5591;42.626;23.380;2023-11-19T10:54:49;94260.69;;;5.65;nan
11077;BME280;5591;42.626;23.380;2023-11-19T10:57:19;94242.25;;;6.24;nan
11077;BME280;5591;42.626;23.380;2023-11-19T10:59:47;94255.56;;;5.89;nan
11077;BME280;5591;42.626;23.380;2023-11-19T11:02:21;94230.50;;;5.88;nan
11077;BME280;5591;42.626;23.380;2023-11-19T11:04:51;94261.81;;;6.20;nan
11077;BME280;5591;42.626;23.380;2023-11-19T11:07:19;94258.69;;;6.16;nan
11077;BME280;5591;42.626;23.380;2023-11-19T11:09:48;94231.03;;;6.23;nan
11077;BME280;5591;42.626;23.380;2023-11-19T11:12:17;94227.59;;;6.63;nan
11077;BME280;5591;42.626;23.380;2023-11-19T11:14:44;94204.34;;;7.08;nan
11077;BME280;5591;42.626;23.380;2023-11-19T11:17:17;94242.91;;;6.66;nan
11077;BME280;5591;42.626;23.380;2023-11-19T11:19:45;94216.13;;;7.04;nan
11077;BME280;5591;42.626;23.380;2023-11-19T11:22:14;94214.81;;;6.92;nan
11077;BME280;5591;42.626;23.380;2023-11-19T11:25:05;94242.72;;;6.75;nan
11077;BME280;5591;42.626;23.380;2023-11-19T11:28:08;94230.94;;;7.03;nan
11077;BME280;5591;42.626;23.380;2023-11-19T11:30:49;94222.16;;;6.96;nan
11077;BME280;5591;42.626;23.380;2023-11-19T11:33:34;94229.25;;;7.26;nan
11077;BME280;5591;42.626;23.380;2023-11-19T11:36:13;94212.44;;;7.28;nan
11077;BME280;5591;42.626;23.380;2023-11-19T11:38:42;94219.34;;;7.14;nan
11077;BME280;5591;42.626;23.380;2023-11-19T11:41:16;94217.78;;;7.35;nan
11077;BME280;5591;42.626;23.380;2023-11-19T11:43:44;94216.41;;;7.09;nan
11077;BME280;5591;42.626;23.380;2023-11-19T11:49:12;94198.91;;;7.94;nan
11077;BME280;5591;42.626;23.380;2023-11-19T11:51:58;94196.66;;;8.36;nan
11077;BME280;5591;42.626;23.380;2023-11-19T11:54:26;94208.06;;;8.80;nan
11077;BME280;5591;42.626;23.380;2023-11-19T11:57:07;94211.88;;;8.69;nan
11077;BME280;5591;42.626;23.380;2023-11-19T11:59:46;94216.69;;;8.80;nan
11077;BME280;5591;42.626;23.380;2023-11-19T12:02:14;94223.88;;;7.66;nan
11077;BME280;5591;42.626;23.380;2023-11-19T12:04:41;94231.09;;;8.17;nan
11077;BME280;5591;42.626;23.380;2023-11-19T12:07:13;94225.81;;;8.25;nan
11077;BME280;5591;42.626;23.380;2023-11-19T12:09:40;94202.75;;;8.06;nan
11077;BME280;5591;42.626;23.380;2023-11-19T12:12:13;94226.06;;;9.26;nan
11077;BME280;5591;42.626;23.380;2023-11-19T12:15:11;94224.81;;;8.71;nan
11077;BME280;5591;42.626;23.380;2023-11-19T12:17:44;94217.53;;;8.81;nan
11077;BME280;5591;42.626;23.380;2023-11-19T12:20:15;94202.22;;;9.36;nan
11077;BME280;5591;42.626;23.380;2023-11-19T12:22:44;94196.81;;;10.64;nan
11077;BME280;5591;42.626;23.380;2023-11-19T12:25:12;94179.84;;;10.18;nan
11077;BME280;5591;42.626;23.380;2023-11-19T12:27:40;94182.97;;;11.72;nan
11077;BME280;5591;42.626;23.380;2023-11-19T12:30:08;94194.25;;;10.08;nan
11077;BME280;5591;42.626;23.380;2023-11-19T12:32:39;94184.91;;;10.96;nan
11077;BME280;5591;42.626;23.380;2023-11-19T12:35:07;94180.28;;;10.91;nan
11077;BME280;5591;42.626;23.380;2023-11-19T12:37:39;94180.94;;;11.34;nan
11077;BME280;5591;42.626;23.380;2023-11-19T12:40:13;94171.53;;;11.93;nan
11077;BME280;5591;42.626;23.380;2023-11-19T12:42:40;94172.28;;;11.80;nan
11077;BME280;5591;42.626;23.380;2023-11-19T12:45:08;94165.34;;;11.32;nan
11077;BME280;5591;42.626;23.380;2023-11-19T12:47:36;94169.19;;;10.26;nan
11077;BME280;5591;42.626;23.380;2023-11-19T12:50:04;94167.88;;;9.45;nan
11077;BME280;5591;42.626;23.380;2023-11-19T12:52:32;94163.44;;;10.37;nan
11077;BME280;5591;42.626;23.380;2023-11-19T12:54:59;94159.16;;;10.78;nan
11077;BME280;5591;42.626;23.380;2023-11-19T12:57:40;94161.53;;;11.01;nan
11077;BME280;5591;42.626;23.380;2023-11-19T13:00:18;94178.66;;;11.58;nan
11077;BME280;5591;42.626;23.380;2023-11-19T13:02:47;94167.59;;;12.55;nan
11077;BME280;5591;42.626;23.380;2023-11-19T13:05:26;94171.69;;;11.78;nan
11077;BME280;5591;42.626;23.380;2023-11-19T13:08:01;94136.00;;;12.61;nan
11077;BME280;5591;42.626;23.380;2023-11-19T13:10:28;94121.63;;;12.83;nan
11077;BME280;5591;42.626;23.380;2023-11-19T13:13:04;94161.59;;;14.20;nan
11077;BME280;5591;42.626;23.380;2023-11-19T13:15:31;94158.53;;;14.85;nan
11077;BME280;5591;42.626;23.380;2023-11-19T13:17:58;94167.22;;;12.77;nan
11077;BME280;5591;42.626;23.380;2023-11-19T13:20:25;94160.00;;;14.13;nan
11077;BME280;5591;42.626;23.380;2023-11-19T13:22:59;94123.06;;;13.62;nan
11077;BME280;5591;42.626;23.380;2023-11-19T13:25:26;94146.53;;;13.13;nan
11077;BME280;5591;42.626;23.380;2023-11-19T13:27:54;94130.81;;;13.57;nan
11077;BME280;5591;42.626;23.380;2023-11-19T13:30:23;94137.44;;;13.73;nan
11077;BME280;5591;42.626;23.380;2023-11-19T13:32:50;94131.75;;;12.67;nan
11077;BME280;5591;42.626;23.380;2023-11-19T13:35:18;94129.66;;;12.04;nan
11077;BME280;5591;42.626;23.380;2023-11-19T13:37:45;94146.88;;;12.07;nan
11077;BME280;5591;42.626;23.380;2023-11-19T13:40:12;94148.94;;;11.24;nan
11077;BME280;5591;42.626;23.380;2023-11-19T13:42:40;94142.94;;;11.30;nan